Time;durP1;ratioP1;P1;durP2;ratioP2;P2;SDS_P1;SDS_P2;PMS_P1;PMS_P2;Temp;Humidity;BMP_temperature;BMP_pressure;BME280_temperature;BME280_humidity;BME280_pressure;Samples;Min_cycle;Max_cycle;Signal;HPM_P1;HPM_P2
2024/03/30 00:00:19;;;;;;;;;;;;;;;;;;2578281;23;20055;-80
2024/03/30 00:01:20;;;;;;;13.83;11.40;;;;;;;;;;2569500;22;20238;-79
2024/03/30 00:02:23;;;;;;;;;;;;;;;;;;2579772;23;20402;-80
2024/03/30 00:03:24;;;;;;;14.85;10.65;;;;;;;;;;2580192;23;19949;-80
2024/03/30 00:04:24;;;;;;;;;;;;;;;;;;2579572;22;20024;-80
2024/03/30 00:05:25;;;;;;;14.77;10.80;;;;;;;;;;2580300;23;19980;-79
2024/03/30 00:06:27;;;;;;;;;;;;;;;;;;2580727;23;20339;-79
2024/03/30 00:07:28;;;;;;;15.98;11.52;;;;;;;;;;2579144;22;19950;-80
2024/03/30 00:08:29;;;;;;;;;;;;;;;;;;2580685;23;20028;-80
2024/03/30 00:09:30;;;;;;;14.75;11.07;;;;;;;;;;2579759;23;20401;-80
2024/03/30 00:10:32;;;;;;;;;;;;;;;;;;2580070;22;20028;-80
2024/03/30 00:11:33;;;;;;;15.27;10.70;;;;;;;;;;2580183;23;20378;-80
2024/03/30 00:12:34;;;;;;;15.45;11.70;;;;;;;;;;2579772;23;20503;-80
2024/03/30 00:13:34;;;;;;;;;;;;;;;;;;2580732;22;20039;-80
2024/03/30 00:14:37;;;;;;;14.17;11.43;;;;;;;;;;2579508;23;19971;-80
2024/03/30 00:15:37;;;;;;;15.80;11.68;;;;;;;;;;2581095;23;20075;-80
2024/03/30 00:16:38;;;;;;;;;;;;;;;;;;2581340;22;20035;-81
2024/03/30 00:17:40;;;;;;;241.97;122.90;;;;;;;;;;2580397;23;19926;-80
2024/03/30 00:18:43;;;;;;;224.32;119.82;;;;;;;;;;2580862;23;20042;-80
2024/03/30 00:19:44;;;;;;;84.97;47.53;;;;;;;;;;2580065;22;20742;-81
2024/03/30 00:20:44;;;;;;;;;;;;;;;;;;2581553;23;20024;-81
2024/03/30 00:21:46;;;;;;;127.83;66.80;;;;;;;;;;2581437;23;19946;-81
2024/03/30 00:22:47;;;;;;;127.47;68.63;;;;;;;;;;2580273;22;20028;-80
2024/03/30 00:23:48;;;;;;;;;;;;;;;;;;2580905;23;20036;-81
2024/03/30 00:24:50;;;;;;;44.77;27.23;;;;;;;;;;2581259;23;19916;-80
2024/03/30 00:25:55;;;;;;;137.90;69.03;;;;;;;;;;2580371;22;20078;-80
2024/03/30 00:26:56;;;;;;;187.75;95.78;;;;;;;;;;2581067;23;20071;-80
2024/03/30 00:27:56;;;;;;;;;;;;;;;;;;2582136;23;20027;-80
2024/03/30 00:28:57;;;;;;;49.43;28.80;;;;;;;;;;2580017;22;19926;-81
2024/03/30 00:29:59;;;;;;;35.55;22.08;;;;;;;;;;2582083;23;20028;-80
2024/03/30 00:30:59;;;;;;;24.88;15.48;;;;;;;;;;2581750;23;20020;-79
2024/03/30 00:32:00;;;;;;;;;;;;;;;;;;2581446;22;20082;-79
2024/03/30 00:33:03;;;;;;;18.60;12.83;;;;;;;;;;2581544;23;20408;-80
2024/03/30 00:34:05;;;;;;;41.63;26.27;;;;;;;;;;2579958;23;20917;-80
2024/03/30 00:35:06;;;;;;;37.85;23.77;;;;;;;;;;2579837;22;20081;-80
2024/03/30 00:36:07;;;;;;;;;;;;;;;;;;2580881;23;20035;-78
2024/03/30 00:37:09;;;;;;;16.83;12.77;;;;;;;;;;2577977;22;19942;-82
2024/03/30 00:38:10;;;;;;;17.17;12.60;;;;;;;;;;2579271;23;20458;-82
2024/03/30 00:39:11;;;;;;;;;;;;;;;;;;2579632;23;20028;-82
2024/03/30 00:40:13;;;;;;;;;;;;;;;;;;2578419;22;19916;-81
2024/03/30 00:41:14;;;;;;;17.67;11.85;;;;;;;;;;2578440;23;20368;-81
2024/03/30 00:42:14;;;;;;;;;;;;;;;;;;2579206;23;20111;-81
2024/03/30 00:43:15;;;;;;;14.40;11.80;;;;;;;;;;2578485;22;19922;-82
2024/03/30 00:44:17;;;;;;;;;;;;;;;;;;2579597;22;20047;-80
2024/03/30 00:45:18;;;;;;;;;;;;;;;;;;2579086;23;20002;-81
2024/03/30 00:46:18;;;;;;;14.00;11.80;;;;;;;;;;2578299;22;19919;-80
2024/03/30 00:47:19;;;;;;;;;;;;;;;;;;2579209;23;20394;-82
2024/03/30 00:48:22;;;;;;;14.70;10.90;;;;;;;;;;2579405;23;19927;-81
2024/03/30 00:49:23;;;;;;;16.88;12.43;;;;;;;;;;2577974;22;20036;-80
2024/03/30 00:50:23;;;;;;;;;;;;;;;;;;2581550;23;20051;-80
2024/03/30 00:51:24;;;;;;;14.20;11.67;;;;;;;;;;2580236;23;20242;-80
2024/03/30 00:52:26;;;;;;;;;;;;;;;;;;2580642;22;20077;-81
2024/03/30 00:53:27;;;;;;;17.02;11.38;;;;;;;;;;2580492;23;19916;-80
2024/03/30 00:54:27;;;;;;;;;;;;;;;;;;2581566;23;20016;-86
2024/03/30 00:55:28;;;;;;;14.03;11.67;;;;;;;;;;2580235;22;19971;-85
2024/03/30 00:56:30;;;;;;;;;;;;;;;;;;2581313;23;20079;-85
2024/03/30 00:57:31;;;;;;;15.38;11.88;;;;;;;;;;2580339;23;19946;-86
2024/03/30 00:58:32;;;;;;;;;;;;;;;;;;2580998;22;20417;-85
2024/03/30 00:59:34;;;;;;;17.60;12.23;;;;;;;;;;2580331;22;19919;-85
2024/03/30 01:00:36;;;;;;;17.65;12.43;;;;;;;;;;2580928;22;20492;-86
2024/03/30 01:01:37;;;;;;;17.40;12.18;;;;;;;;;;2579640;22;20766;-87
2024/03/30 01:02:38;;;;;;;;;;;;;;;;;;2581534;22;20028;-87
2024/03/30 01:03:40;;;;;;;16.33;11.95;;;;;;;;;;2581469;23;19997;-86
2024/03/30 01:04:42;;;;;;;15.00;12.52;;;;;;;;;;2580327;22;20027;-86
2024/03/30 01:05:43;;;;;;;18.70;13.63;;;;;;;;;;2581058;23;20106;-85
2024/03/30 01:06:44;;;;;;;;;;;;;;;;;;2581901;23;20032;-85
2024/03/30 01:07:45;;;;;;;15.50;12.33;;;;;;;;;;2580025;22;19959;-86
2024/03/30 01:08:47;;;;;;;16.95;11.77;;;;;;;;;;2581043;23;20028;-85
2024/03/30 01:09:48;;;;;;;15.73;12.43;;;;;;;;;;2580810;23;20024;-86
2024/03/30 01:10:56;;;;;;;;;;;;;;;;;;2580627;22;20066;-86
2024/03/30 01:11:57;;;;;;;14.70;12.82;;;;;;;;;;2581077;23;19945;-85
2024/03/30 01:12:59;;;;;;;16.20;13.07;;;;;;;;;;2580428;23;20469;-86
2024/03/30 01:14:01;;;;;;;17.83;12.95;;;;;;;;;;2579546;22;20024;-86
2024/03/30 01:15:03;;;;;;;16.33;12.63;;;;;;;;;;2580771;23;20039;-86
2024/03/30 01:16:09;;;;;;;15.40;12.45;;;;;;;;;;2580299;23;20431;-86
2024/03/30 01:17:12;;;;;;;16.50;12.63;;;;;;;;;;2580669;22;20020;-86
2024/03/30 01:18:13;;;;;;;15.32;12.48;;;;;;;;;;2580914;22;20115;-86
2024/03/30 01:19:16;;;;;;;15.75;12.07;;;;;;;;;;2580533;22;20024;-86
2024/03/30 01:20:20;;;;;;;14.63;11.73;;;;;;;;;;2581058;23;20028;-86
2024/03/30 01:21:22;;;;;;;16.48;12.65;;;;;;;;;;2580658;23;20414;-86
2024/03/30 01:22:24;;;;;;;15.48;12.20;;;;;;;;;;2580207;22;20059;-86
2024/03/30 01:23:25;;;;;;;17.48;12.75;;;;;;;;;;2580813;23;20611;-86
2024/03/30 01:24:26;;;;;;;17.02;13.45;;;;;;;;;;2580272;22;20043;-87
2024/03/30 01:25:28;;;;;;;17.17;12.10;;;;;;;;;;2580422;22;20017;-87
2024/03/30 01:26:30;;;;;;;17.23;12.45;;;;;;;;;;2581996;23;20206;-86
2024/03/30 01:27:31;;;;;;;14.50;11.52;;;;;;;;;;2581545;23;20448;-86
2024/03/30 01:28:33;;;;;;;16.30;12.75;;;;;;;;;;2580617;22;20035;-87
2024/03/30 01:29:35;;;;;;;15.45;12.15;;;;;;;;;;2581095;23;20078;-87
2024/03/30 01:30:38;;;;;;;15.20;12.45;;;;;;;;;;2581150;23;20543;-87
2024/03/30 01:31:39;;;;;;;15.50;12.30;;;;;;;;;;2580648;22;20024;-86
2024/03/30 01:32:41;;;;;;;18.67;13.15;;;;;;;;;;2580898;23;20492;-86
2024/03/30 01:33:42;;;;;;;16.98;12.35;;;;;;;;;;2580579;23;20023;-87
2024/03/30 01:34:46;;;;;;;19.42;12.60;;;;;;;;;;2580266;22;20024;-86
2024/03/30 01:35:47;;;;;;;16.45;12.80;;;;;;;;;;2580090;23;20033;-87
2024/03/30 01:36:47;;;;;;;;;;;;;;;;;;2581756;23;20124;-87
2024/03/30 01:37:48;;;;;;;15.90;11.83;;;;;;;;;;2580483;22;19935;-86
2024/03/30 01:38:50;;;;;;;;;;;;;;;;;;2581564;23;20035;-86
2024/03/30 01:39:51;;;;;;;13.65;11.32;;;;;;;;;;2580960;23;19923;-87
2024/03/30 01:40:51;;;;;;;;;;;;;;;;;;2580987;22;20024;-87
2024/03/30 01:41:52;;;;;;;14.63;11.67;;;;;;;;;;2581131;23;19916;-86
2024/03/30 01:42:54;;;;;;;;;;;;;;;;;;2581636;23;20135;-87
2024/03/30 01:43:55;;;;;;;15.25;11.45;;;;;;;;;;2580630;22;19976;-87
2024/03/30 01:44:56;;;;;;;;;;;;;;;;;;2582186;23;20078;-87
2024/03/30 01:45:57;;;;;;;16.27;12.27;;;;;;;;;;2581796;23;19990;-87
2024/03/30 01:46:59;;;;;;;18.27;12.07;;;;;;;;;;2580649;22;20024;-87
2024/03/30 01:48:01;;;;;;;16.30;12.27;;;;;;;;;;2581354;23;20027;-87
2024/03/30 01:49:02;;;;;;;16.35;12.73;;;;;;;;;;2581372;23;20020;-86
2024/03/30 01:50:07;;;;;;;16.15;12.35;;;;;;;;;;2580899;22;20035;-86
2024/03/30 01:51:08;;;;;;;14.77;12.30;;;;;;;;;;2581638;23;20462;-86
2024/03/30 01:52:09;;;;;;;15.07;12.73;;;;;;;;;;2580497;22;20036;-87
2024/03/30 01:53:11;;;;;;;;;;;;;;;;;;2582151;23;20344;-87
2024/03/30 01:54:14;;;;;;;16.10;11.73;;;;;;;;;;2581603;23;19919;-85
2024/03/30 01:55:15;;;;;;;15.20;12.45;;;;;;;;;;2580506;22;20033;-85
2024/03/30 01:56:17;;;;;;;18.30;12.93;;;;;;;;;;2581175;23;20023;-87
2024/03/30 01:57:19;;;;;;;15.52;12.45;;;;;;;;;;2581216;23;20477;-86
2024/03/30 01:58:24;;;;;;;16.58;12.55;;;;;;;;;;2581363;22;20028;-87
2024/03/30 01:59:25;;;;;;;15.48;11.93;;;;;;;;;;2581583;23;20055;-87
2024/03/30 02:00:26;;;;;;;;;;;;;;;;;;2581976;23;20039;-86
2024/03/30 02:01:27;;;;;;;17.93;12.83;;;;;;;;;;2580796;22;19919;-88
2024/03/30 02:02:28;;;;;;;;;;;;;;;;;;2582421;23;20016;-87
2024/03/30 02:03:29;;;;;;;16.73;11.95;;;;;;;;;;2581851;23;20434;-88
2024/03/30 02:04:30;;;;;;;;;;;;;;;;;;2580823;22;20028;-80
2024/03/30 02:05:32;;;;;;;16.27;13.37;;;;;;;;;;2580719;23;20334;-80
2024/03/30 02:06:34;;;;;;;17.15;13.57;;;;;;;;;;2580246;23;20027;-80
2024/03/30 02:07:35;;;;;;;16.30;12.43;;;;;;;;;;2579278;22;20024;-81
2024/03/30 02:08:35;;;;;;;;;;;;;;;;;;2581109;23;20354;-80
2024/03/30 02:09:37;;;;;;;15.50;12.33;;;;;;;;;;2580013;22;19915;-80
2024/03/30 02:10:40;;;;;;;15.82;13.38;;;;;;;;;;2579449;22;20102;-80
2024/03/30 02:11:41;;;;;;;18.05;13.13;;;;;;;;;;2580698;23;20024;-81
2024/03/30 02:12:41;;;;;;;;;;;;;;;;;;2580917;22;20059;-80
2024/03/30 02:13:44;;;;;;;15.23;12.50;;;;;;;;;;2579702;22;19926;-80
2024/03/30 02:14:48;;;;;;;15.05;12.50;;;;;;;;;;2580110;23;20078;-80
2024/03/30 02:15:48;;;;;;;15.75;12.80;;;;;;;;;;2580252;23;20033;-80
2024/03/30 02:16:49;;;;;;;;;;;;;;;;;;2580072;22;20114;-80
2024/03/30 02:17:50;;;;;;;16.43;12.97;;;;;;;;;;2580141;23;19922;-80
2024/03/30 02:18:52;;;;;;;;;;;;;;;;;;2581145;23;20107;-80
2024/03/30 02:19:56;;;;;;;16.05;12.82;;;;;;;;;;2579812;22;19996;-80
2024/03/30 02:20:58;;;;;;;18.60;14.10;;;;;;;;;;2580773;23;20027;-80
2024/03/30 02:22:00;;;;;;;16.95;13.95;;;;;;;;;;2580003;23;20024;-80
2024/03/30 02:23:02;;;;;;;21.00;14.35;;;;;;;;;;2579393;22;20101;-80
2024/03/30 02:24:04;;;;;;;17.10;13.68;;;;;;;;;;2580169;22;20035;-80
2024/03/30 02:25:05;;;;;;;16.95;14.38;;;;;;;;;;2580055;22;20034;-80
2024/03/30 02:26:06;;;;;;;;;;;;;;;;;;2580478;23;20055;-80
2024/03/30 02:27:07;;;;;;;17.97;14.50;;;;;;;;;;2580604;23;20592;-80
2024/03/30 02:28:08;;;;;;;19.60;15.68;;;;;;;;;;2579523;22;20411;-80
2024/03/30 02:29:09;;;;;;;;;;;;;;;;;;2580704;23;20063;-80
2024/03/30 02:30:11;;;;;;;18.30;15.30;;;;;;;;;;2580871;23;19915;-80
2024/03/30 02:31:13;;;;;;;18.33;15.40;;;;;;;;;;2578779;22;20030;-80
2024/03/30 02:32:14;;;;;;;21.33;15.35;;;;;;;;;;2580057;23;20058;-80
2024/03/30 02:33:14;;;;;;;;;;;;;;;;;;2580428;23;20067;-80
2024/03/30 02:34:16;;;;;;;19.97;16.13;;;;;;;;;;2579423;22;19959;-80
2024/03/30 02:35:17;;;;;;;21.75;16.58;;;;;;;;;;2579559;23;20028;-80
2024/03/30 02:36:19;;;;;;;;;;;;;;;;;;2580402;23;20108;-80
2024/03/30 02:37:20;;;;;;;19.88;16.23;;;;;;;;;;2579550;22;19919;-79
2024/03/30 02:38:23;;;;;;;;;;;;;;;;;;2581446;22;20338;-79
2024/03/30 02:39:26;;;;;;;20.40;16.88;;;;;;;;;;2580226;23;19965;-80
2024/03/30 02:40:27;;;;;;;20.95;16.02;;;;;;;;;;2579556;22;20024;-81
2024/03/30 02:41:28;;;;;;;21.58;18.15;;;;;;;;;;2580035;23;20023;-80
2024/03/30 02:42:29;;;;;;;;;;;;;;;;;;2581093;22;20027;-79
2024/03/30 02:43:30;;;;;;;21.40;17.60;;;;;;;;;;2579969;22;19935;-80
2024/03/30 02:44:31;;;;;;;;;;;;;;;;;;2580595;23;20046;-80
2024/03/30 02:45:33;;;;;;;22.87;16.47;;;;;;;;;;2580727;23;19922;-80
2024/03/30 02:46:33;;;;;;;21.45;17.65;;;;;;;;;;2580070;22;20020;-79
2024/03/30 02:47:34;;;;;;;;;;;;;;;;;;2581426;22;20402;-80
2024/03/30 02:48:35;;;;;;;19.93;16.60;;;;;;;;;;2580519;23;19920;-80
2024/03/30 02:49:36;;;;;;;;;;;;;;;;;;2580264;22;20043;-80
2024/03/30 02:50:37;;;;;;;19.55;16.58;;;;;;;;;;2580247;23;19916;-80
2024/03/30 02:51:37;;;;;;;;;;;;;;;;;;2580842;23;20055;-80
2024/03/30 02:52:39;;;;;;;20.37;16.50;;;;;;;;;;2579593;22;19964;-80
2024/03/30 02:53:41;;;;;;;22.98;17.73;;;;;;;;;;2580283;23;20058;-80
2024/03/30 02:54:43;;;;;;;21.45;18.00;;;;;;;;;;2580070;23;20024;-80
2024/03/30 02:55:44;;;;;;;21.75;18.42;;;;;;;;;;2579289;22;20028;-80
2024/03/30 02:56:46;;;;;;;;;;;;;;;;;;2581356;23;20285;-80
2024/03/30 02:57:46;;;;;;;23.00;18.67;;;;;;;;;;2580300;23;19920;-79
2024/03/30 02:58:47;;;;;;;23.50;18.63;;;;;;;;;;2579658;22;20024;-83
2024/03/30 02:59:48;;;;;;;;;;;;;;;;;;2581330;23;20354;-78
2024/03/30 03:00:49;;;;;;;25.67;19.77;;;;;;;;;;2579974;23;20304;-81
2024/03/30 03:01:50;;;;;;;28.17;20.88;;;;;;;;;;2579318;22;20396;-80
2024/03/30 03:02:50;;;;;;;;;;;;;;;;;;2580840;23;20027;-79
2024/03/30 03:03:53;;;;;;;24.40;19.20;;;;;;;;;;2580086;22;19923;-79
2024/03/30 03:04:54;;;;;;;26.90;19.90;;;;;;;;;;2579769;22;20074;-79
2024/03/30 03:05:54;;;;;;;;;;;;;;;;;;2581123;23;20031;-80
2024/03/30 03:06:56;;;;;;;25.53;20.27;;;;;;;;;;2580289;23;19922;-80
2024/03/30 03:07:57;;;;;;;23.25;19.58;;;;;;;;;;2579774;22;20032;-79
2024/03/30 03:08:58;;;;;;;23.63;19.60;;;;;;;;;;2580394;22;20102;-80
2024/03/30 03:10:00;;;;;;;;;;;;;;;;;;2581204;23;20024;-79
2024/03/30 03:11:02;;;;;;;23.67;19.08;;;;;;;;;;2579793;22;19924;-80
2024/03/30 03:12:03;;;;;;;25.02;19.85;;;;;;;;;;2579698;23;20107;-80
2024/03/30 03:13:04;;;;;;;25.48;20.60;;;;;;;;;;2579628;23;20039;-80
2024/03/30 03:14:04;;;;;;;;;;;;;;;;;;2580252;22;20044;-80
2024/03/30 03:15:06;;;;;;;25.50;19.83;;;;;;;;;;2580259;23;19951;-79
2024/03/30 03:16:07;;;;;;;23.10;19.73;;;;;;;;;;2580026;22;20054;-79
2024/03/30 03:17:08;;;;;;;;;;;;;;;;;;2581135;22;20099;-79
2024/03/30 03:18:09;;;;;;;23.47;19.37;;;;;;;;;;2580093;23;20243;-80
2024/03/30 03:19:10;;;;;;;;;;;;;;;;;;2580279;22;20386;-80
2024/03/30 03:20:11;;;;;;;24.67;19.58;;;;;;;;;;2579973;23;19938;-80
2024/03/30 03:21:12;;;;;;;;;;;;;;;;;;2580874;23;20035;-80
2024/03/30 03:22:13;;;;;;;29.00;19.70;;;;;;;;;;2579153;22;19994;-81
2024/03/30 03:23:14;;;;;;;25.33;19.95;;;;;;;;;;2579608;23;20032;-80
2024/03/30 03:24:15;;;;;;;;;;;;;;;;;;2580709;23;20044;-80
2024/03/30 03:25:17;;;;;;;24.23;19.40;;;;;;;;;;2580136;22;19938;-80
2024/03/30 03:26:18;;;;;;;25.50;20.52;;;;;;;;;;2579928;23;20024;-81
2024/03/30 03:27:19;;;;;;;;;;;;;;;;;;2580972;23;20024;-79
2024/03/30 03:28:20;;;;;;;28.88;20.08;;;;;;;;;;2579541;22;19915;-81
2024/03/30 03:29:20;;;;;;;;;;;;;;;;;;2580137;23;20074;-79
2024/03/30 03:30:21;;;;;;;21.57;18.37;;;;;;;;;;2580117;23;19923;-79
2024/03/30 03:31:23;;;;;;;;;;;;;;;;;;2580069;22;20524;-79
2024/03/30 03:32:25;;;;;;;;;;;;;;;;;;2580659;23;19946;-79
2024/03/30 03:33:26;;;;;;;24.88;18.42;;;;;;;;;;2580013;23;19934;-82
2024/03/30 03:34:26;;;;;;;;;;;;;;;;;;2579844;22;20465;-80
2024/03/30 03:35:28;;;;;;;24.97;19.30;;;;;;;;;;2580259;23;19919;-82
2024/03/30 03:36:29;;;;;;;27.38;19.48;;;;;;;;;;2579965;23;20031;-80
2024/03/30 03:37:29;;;;;;;;;;;;;;;;;;2579984;22;20024;-80
2024/03/30 03:38:30;;;;;;;44.20;23.83;;;;;;;;;;2579682;23;19922;-79
2024/03/30 03:39:32;;;;;;;;;;;;;;;;;;2579602;23;20048;-79
2024/03/30 03:40:34;;;;;;;38.42;23.77;;;;;;;;;;2578710;22;20293;-79
2024/03/30 03:41:35;;;;;;;39.13;24.45;;;;;;;;;;2578916;22;20082;-80
2024/03/30 03:42:35;;;;;;;;;;;;;;;;;;2580941;23;20036;-80
2024/03/30 03:43:40;;;;;;;37.20;23.10;;;;;;;;;;2579067;22;19961;-80
2024/03/30 03:44:40;;;;;;;35.58;23.30;;;;;;;;;;2580009;23;20020;-80
2024/03/30 03:45:43;;;;;;;;;;;;;;;;;;2580394;23;20030;-80
2024/03/30 03:46:44;;;;;;;34.70;23.13;;;;;;;;;;2579400;22;19920;-80
2024/03/30 03:47:46;;;;;;;;;;;;;;;;;;2581514;22;20030;-80
2024/03/30 03:48:47;;;;;;;35.63;23.40;;;;;;;;;;2581033;23;19968;-80
2024/03/30 03:49:47;;;;;;;;;;;;;;;;;;2581185;22;20421;-80
2024/03/30 03:50:48;;;;;;;41.00;23.07;;;;;;;;;;2581035;23;20269;-80
2024/03/30 03:51:49;;;;;;;;;;;;;;;;;;2581566;22;20024;-80
2024/03/30 03:52:50;;;;;;;32.78;22.92;;;;;;;;;;2580195;22;19922;-80
2024/03/30 03:53:51;;;;;;;;;;;;;;;;;;2580948;23;20059;-79
2024/03/30 03:54:52;;;;;;;35.00;22.43;;;;;;;;;;2580589;23;19919;-81
2024/03/30 03:55:55;;;;;;;;;;;;;;;;;;2580640;22;20091;-81
2024/03/30 03:56:56;;;;;;;46.05;23.30;;;;;;;;;;2580706;23;20579;-81
2024/03/30 03:57:56;;;;;;;;;;;;;;;;;;2581679;23;20056;-81
2024/03/30 03:58:57;;;;;;;33.63;22.13;;;;;;;;;;2579902;22;19919;-80
2024/03/30 03:59:58;;;;;;;;;;;;;;;;;;2581275;23;20419;-80
2024/03/30 04:01:04;;;;;;;36.60;24.35;;;;;;;;;;2580927;23;20368;-80
2024/03/30 04:02:04;;;;;;;38.65;24.65;;;;;;;;;;2580175;22;20031;-80
2024/03/30 04:03:05;;;;;;;;;;;;;;;;;;2581341;23;20362;-80
2024/03/30 04:04:07;;;;;;;43.60;24.83;;;;;;;;;;2580342;22;19962;-80
2024/03/30 04:05:08;;;;;;;41.08;25.60;;;;;;;;;;2581175;22;20106;-79
2024/03/30 04:06:08;;;;;;;;;;;;;;;;;;2581414;22;20030;-80
2024/03/30 04:07:09;;;;;;;39.77;24.00;;;;;;;;;;2580260;22;20615;-80
2024/03/30 04:08:11;;;;;;;45.65;24.88;;;;;;;;;;2580218;23;20422;-81
2024/03/30 04:09:13;;;;;;;41.95;26.63;;;;;;;;;;2580586;23;20017;-80
2024/03/30 04:10:15;;;;;;;45.40;25.77;;;;;;;;;;2580247;22;20035;-80
2024/03/30 04:11:18;;;;;;;49.40;26.63;;;;;;;;;;2580616;22;20039;-80
2024/03/30 04:12:19;;;;;;;50.20;26.80;;;;;;;;;;2580571;23;20362;-80
2024/03/30 04:13:19;;;;;;;;;;;;;;;;;;2580328;22;20095;-80
2024/03/30 04:14:21;;;;;;;45.60;25.23;;;;;;;;;;2580468;22;19912;-81
2024/03/30 04:15:22;;;;;;;46.28;27.25;;;;;;;;;;2580480;23;20028;-81
2024/03/30 04:16:23;;;;;;;;;;;;;;;;;;2581278;22;20175;-80
2024/03/30 04:17:23;;;;;;;38.73;25.43;;;;;;;;;;2580509;23;19915;-80
2024/03/30 04:18:25;;;;;;;43.33;25.50;;;;;;;;;;2580571;23;20736;-81
2024/03/30 04:19:26;;;;;;;49.80;28.02;;;;;;;;;;2579750;22;20446;-80
2024/03/30 04:20:27;;;;;;;;;;;;;;;;;;2581296;23;20051;-80
2024/03/30 04:21:29;;;;;;;44.53;26.40;;;;;;;;;;2580762;23;19911;-82
2024/03/30 04:22:29;;;;;;;50.90;27.65;;;;;;;;;;2579929;22;20027;-79
2024/03/30 04:23:31;;;;;;;;;;;;;;;;;;2581334;22;20024;-79
2024/03/30 04:24:32;;;;;;;47.35;24.85;;;;;;;;;;2581435;23;19927;-86
2024/03/30 04:25:33;;;;;;;;;;;;;;;;;;2581353;22;20410;-85
2024/03/30 04:26:36;;;;;;;37.78;25.13;;;;;;;;;;2581275;23;19924;-85
2024/03/30 04:27:36;;;;;;;43.50;25.23;;;;;;;;;;2580964;23;20035;-84
2024/03/30 04:28:38;;;;;;;;;;;;;;;;;;2580754;22;20030;-86
2024/03/30 04:29:39;;;;;;;46.83;25.55;;;;;;;;;;2581236;23;19969;-86
2024/03/30 04:30:40;;;;;;;;;;;;;;;;;;2581531;23;20020;-86
2024/03/30 04:31:40;;;;;;;42.80;23.83;;;;;;;;;;2580313;22;19915;-86
2024/03/30 04:32:42;;;;;;;;;;;;;;;;;;2581707;23;20090;-85
2024/03/30 04:33:43;;;;;;;49.00;24.65;;;;;;;;;;2581060;23;19919;-86
2024/03/30 04:34:44;;;;;;;;;;;;;;;;;;2580828;22;20050;-87
2024/03/30 04:35:51;;;;;;;42.33;24.60;;;;;;;;;;2580965;23;19915;-88
2024/03/30 04:36:53;;;;;;;38.53;26.00;;;;;;;;;;2581180;23;20054;-86
2024/03/30 04:37:54;;;;;;;46.20;26.20;;;;;;;;;;2580842;22;20020;-86
2024/03/30 04:38:56;;;;;;;;;;;;;;;;;;2581962;23;20131;-86
2024/03/30 04:39:56;;;;;;;;;;;;;;;;;;2581506;23;19916;-88
2024/03/30 04:40:58;;;;;;;43.47;24.97;;;;;;;;;;2580796;22;19921;-86
2024/03/30 04:42:01;;;;;;;43.13;23.85;;;;;;;;;;2580870;22;20130;-85
2024/03/30 04:43:02;;;;;;;56.97;26.55;;;;;;;;;;2581488;23;20432;-85
2024/03/30 04:44:03;;;;;;;;;;;;;;;;;;2583759;22;20024;-85
2024/03/30 04:45:05;;;;;;;49.72;25.33;;;;;;;;;;2585518;23;20029;-85
2024/03/30 04:46:06;;;;;;;55.85;26.98;;;;;;;;;;2585640;22;20051;-86
2024/03/30 04:47:07;;;;;;;;;;;;;;;;;;2589041;23;20416;-86
2024/03/30 04:48:08;;;;;;;55.80;26.90;;;;;;;;;;2587233;22;19915;-86
2024/03/30 04:49:09;;;;;;;;;;;;;;;;;;2587244;22;20047;-87
2024/03/30 04:50:10;;;;;;;53.70;25.45;;;;;;;;;;2586989;22;19939;-88
2024/03/30 04:51:10;;;;;;;;;;;;;;;;;;2587171;23;20020;-87
2024/03/30 04:52:11;;;;;;;49.83;25.73;;;;;;;;;;2587593;22;19922;-87
2024/03/30 04:53:17;;;;;;;;;;;;;;;;;;2589051;22;20054;-86
2024/03/30 04:54:18;;;;;;;51.38;26.45;;;;;;;;;;2587858;23;19903;-87
2024/03/30 04:55:18;;;;;;;;;;;;;;;;;;2589723;22;20055;-86
2024/03/30 04:56:19;;;;;;;48.83;25.30;;;;;;;;;;2589169;23;19915;-90
2024/03/30 04:57:22;;;;;;;;;;;;;;;;;;2588505;23;20376;-86
2024/03/30 04:58:24;;;;;;;43.17;25.42;;;;;;;;;;2588033;22;19919;-89
2024/03/30 04:59:25;;;;;;;46.28;25.35;;;;;;;;;;2588780;23;20171;-88
2024/03/30 05:00:25;;;;;;;;;;;;;;;;;;2588790;23;20082;-89
2024/03/30 05:01:27;;;;;;;39.17;23.87;;;;;;;;;;2586578;22;19919;-85
2024/03/30 05:02:28;;;;;;;44.10;25.77;;;;;;;;;;2588615;23;20047;-90
2024/03/30 05:03:28;;;;;;;;;;;;;;;;;;2589205;23;20051;-86
2024/03/30 05:04:29;;;;;;;38.40;23.97;;;;;;;;;;2586393;22;19919;-86
2024/03/30 05:05:31;;;;;;;;;;;;;;;;;;2583842;23;20062;-86
2024/03/30 05:06:32;;;;;;;40.55;22.65;;;;;;;;;;2583560;23;19939;-87
2024/03/30 05:07:32;;;;;;;;;;;;;;;;;;2582949;22;20020;-87
2024/03/30 05:08:33;;;;;;;37.67;22.77;;;;;;;;;;2582468;23;19998;-87
2024/03/30 05:09:35;;;;;;;38.03;23.20;;;;;;;;;;2582449;23;20454;-89
2024/03/30 05:10:37;;;;;;;40.05;23.92;;;;;;;;;;2582073;22;20043;-86
2024/03/30 05:11:37;;;;;;;31.60;21.58;;;;;;;;;;2582988;23;20385;-87
2024/03/30 05:12:40;;;;;;;;;;;;;;;;;;2584288;23;20056;-86
2024/03/30 05:13:42;;;;;;;34.65;22.90;;;;;;;;;;2582878;22;19919;-87
2024/03/30 05:14:43;;;;;;;43.05;23.67;;;;;;;;;;2583774;23;20476;-88
2024/03/30 05:15:43;;;;;;;;;;;;;;;;;;2586291;22;20020;-87
2024/03/30 05:16:44;;;;;;;36.33;21.77;;;;;;;;;;2587561;22;19923;-87
2024/03/30 05:17:45;;;;;;;;;;;;;;;;;;2589363;23;20028;-87
2024/03/30 05:18:46;;;;;;;35.43;22.13;;;;;;;;;;2589330;23;19919;-86
2024/03/30 05:21:06;;;;;;;30.67;21.88;;;;;;;;;;2586771;23;20028;-84
2024/03/30 05:22:06;;;;;;;;;;;;;;;;;;2585667;22;20024;-86
2024/03/30 05:23:07;;;;;;;37.40;22.27;;;;;;;;;;2585051;22;19922;-87
2024/03/30 05:24:09;;;;;;;;;;;;;;;;;;2586970;23;20028;-86
2024/03/30 05:25:10;;;;;;;29.80;21.02;;;;;;;;;;2586551;22;20026;-86
2024/03/30 05:26:10;;;;;;;;;;;;;;;;;;2586464;22;20020;-87
2024/03/30 05:27:11;;;;;;;41.20;23.13;;;;;;;;;;2586538;23;19961;-86
2024/03/30 05:28:13;;;;;;;;;;;;;;;;;;2587039;22;20024;-87
2024/03/30 05:29:15;;;;;;;40.80;23.48;;;;;;;;;;2587168;23;19927;-86
2024/03/30 05:30:18;;;;;;;39.90;24.52;;;;;;;;;;2586169;23;20031;-87
2024/03/30 05:31:20;;;;;;;51.08;27.33;;;;;;;;;;2586925;22;20039;-86
2024/03/30 05:32:21;;;;;;;49.35;25.92;;;;;;;;;;2587579;22;20035;-88
2024/03/30 05:33:23;;;;;;;;;;;;;;;;;;2583034;23;20460;-85
2024/03/30 05:34:23;;;;;;;;;;;;;;;;;;2581247;22;20288;-88
2024/03/30 05:35:24;;;;;;;53.87;25.27;;;;;;;;;;2580887;22;19985;-85
2024/03/30 05:36:25;;;;;;;;;;;;;;;;;;2581765;23;20484;-84
2024/03/30 05:37:27;;;;;;;44.97;25.17;;;;;;;;;;2580137;22;19924;-85
2024/03/30 05:38:27;;;;;;;45.55;25.58;;;;;;;;;;2580887;23;20028;-83
2024/03/30 05:39:28;;;;;;;;;;;;;;;;;;2581289;23;20361;-83
2024/03/30 05:40:32;;;;;;;47.77;26.63;;;;;;;;;;2580103;22;19919;-83
2024/03/30 05:41:32;;;;;;;45.78;26.38;;;;;;;;;;2580560;23;20035;-85
2024/03/30 05:42:33;;;;;;;;;;;;;;;;;;2581519;23;20024;-83
2024/03/30 05:43:35;;;;;;;51.83;24.80;;;;;;;;;;2580359;22;20646;-84
2024/03/30 05:44:37;;;;;;;53.28;25.98;;;;;;;;;;2581812;23;20480;-84
2024/03/30 05:45:40;;;;;;;57.65;26.98;;;;;;;;;;2580971;23;20070;-83
2024/03/30 05:46:41;;;;;;;44.70;25.88;;;;;;;;;;2580389;22;20048;-83
2024/03/30 05:47:41;;;;;;;;;;;;;;;;;;2580658;23;20049;-83
2024/03/30 05:48:43;;;;;;;42.00;24.30;;;;;;;;;;2581447;23;19922;-83
2024/03/30 05:49:44;;;;;;;49.53;26.85;;;;;;;;;;2580133;22;20534;-82
2024/03/30 05:50:44;;;;;;;;;;;;;;;;;;2581794;22;20024;-83
2024/03/30 05:51:45;;;;;;;51.23;25.80;;;;;;;;;;2581923;23;19927;-86
2024/03/30 05:52:47;;;;;;;;;;;;;;;;;;2581413;22;20051;-83
2024/03/30 05:53:48;;;;;;;43.03;24.73;;;;;;;;;;2582337;23;19916;-85
2024/03/30 05:54:48;;;;;;;;;;;;;;;;;;2582977;23;20083;-83
2024/03/30 05:55:51;;;;;;;49.37;25.50;;;;;;;;;;2581538;22;19919;-83
2024/03/30 05:56:51;;;;;;;51.00;27.02;;;;;;;;;;2581261;22;20742;-83
2024/03/30 05:57:54;;;;;;;;;;;;;;;;;;2581326;23;20039;-83
2024/03/30 05:58:56;;;;;;;53.53;24.70;;;;;;;;;;2580407;22;20643;-83
2024/03/30 05:59:58;;;;;;;51.40;27.38;;;;;;;;;;2580571;22;20098;-83
2024/03/30 06:00:59;;;;;;;48.30;26.25;;;;;;;;;;2580580;23;20047;-84
2024/03/30 06:01:59;;;;;;;;;;;;;;;;;;2580479;22;20028;-83
2024/03/30 06:03:00;;;;;;;52.17;26.03;;;;;;;;;;2580323;23;20254;-82
2024/03/30 06:04:02;;;;;;;;;;;;;;;;;;2581182;22;20055;-82
2024/03/30 06:05:03;;;;;;;56.30;26.70;;;;;;;;;;2580024;22;20387;-83
2024/03/30 06:06:05;;;;;;;57.60;27.38;;;;;;;;;;2580116;23;20086;-84
2024/03/30 06:07:08;;;;;;;52.97;27.05;;;;;;;;;;2579934;23;20081;-83
2024/03/30 06:08:10;;;;;;;57.90;27.70;;;;;;;;;;2580296;23;20027;-82
2024/03/30 06:09:11;;;;;;;57.92;28.13;;;;;;;;;;2580285;22;20027;-84
2024/03/30 06:10:11;;;;;;;;;;;;;;;;;;2580454;22;20028;-84
2024/03/30 06:11:12;;;;;;;57.47;28.13;;;;;;;;;;2580855;23;20275;-86
2024/03/30 06:12:14;;;;;;;;;;;;;;;;;;2581031;22;20416;-83
2024/03/30 06:13:14;;;;;;;61.53;27.58;;;;;;;;;;2579537;22;20417;-84
2024/03/30 06:14:16;;;;;;;;;;;;;;;;;;2580970;22;20115;-83
2024/03/30 06:15:19;;;;;;;56.55;27.17;;;;;;;;;;2580231;22;19926;-87
2024/03/30 06:16:21;;;;;;;60.35;28.55;;;;;;;;;;2579716;22;20027;-86